Time;durP1;ratioP1;P1;durP2;ratioP2;P2;SDS_P1;SDS_P2;PMS_P1;PMS_P2;Temp;Humidity;BMP_temperature;BMP_pressure;BME280_temperature;BME280_humidity;BME280_pressure;Samples;Min_cycle;Max_cycle;Signal;HPM_P1;HPM_P2
2022/03/24 00:00:35;;;;;;;36.17;16.77;;;4.70;97.90;;;;;;4995368;28;20104;-88
2022/03/24 00:03:00;;;;;;;35.17;17.77;;;4.70;99.30;;;;;;4962869;28;20138;-87
2022/03/24 00:05:27;;;;;;;35.45;18.83;;;4.60;99.30;;;;;;4962542;28;20069;-88
2022/03/24 00:07:52;;;;;;;39.40;18.50;;;4.50;99.90;;;;;;4961731;28;20031;-88
2022/03/24 00:10:18;;;;;;;34.83;16.73;;;4.50;99.90;;;;;;4962049;28;20054;-87
2022/03/24 00:12:44;;;;;;;32.55;16.58;;;4.40;99.90;;;;;;4962231;28;20038;-88
2022/03/24 00:15:10;;;;;;;31.20;16.08;;;4.30;99.90;;;;;;4962680;28;20140;-88
2022/03/24 00:17:38;;;;;;;33.28;16.35;;;4.40;99.90;;;;;;4978461;28;20646;-88
2022/03/24 00:20:05;;;;;;;31.10;16.20;;;4.30;99.90;;;;;;4994192;28;20038;-88
2022/03/24 00:22:30;;;;;;;26.02;14.40;;;4.30;99.90;;;;;;4962473;28;20034;-88
2022/03/24 00:24:57;;;;;;;29.27;15.07;;;4.30;99.90;;;;;;4962673;28;20026;-88
2022/03/24 00:27:23;;;;;;;27.83;14.57;;;4.30;99.90;;;;;;4962518;28;20037;-88
2022/03/24 00:29:49;;;;;;;26.85;14.30;;;4.30;99.90;;;;;;4962691;28;20389;-88
2022/03/24 00:32:14;;;;;;;29.08;14.48;;;4.30;99.90;;;;;;4978604;28;20042;-88
2022/03/24 00:34:40;;;;;;;32.30;14.50;;;4.20;99.90;;;;;;4962562;28;20045;-88
2022/03/24 00:37:08;;;;;;;31.92;13.98;;;4.20;99.90;;;;;;4962432;28;20034;-88
2022/03/24 00:39:34;;;;;;;29.35;13.60;;;4.20;99.90;;;;;;4994156;28;20038;-88
2022/03/24 00:42:11;;;;;;;29.50;15.30;;;4.20;99.90;;;;;;4961724;28;20080;-88
2022/03/24 00:44:44;;;;;;;27.92;14.32;;;4.20;99.90;;;;;;4962310;28;20026;-88
2022/03/24 00:47:13;;;;;;;34.13;14.85;;;4.20;99.90;;;;;;4961745;28;20034;-88
2022/03/24 00:49:40;;;;;;;29.35;15.55;;;4.20;99.90;;;;;;4961813;28;20037;-87
2022/03/24 00:52:06;;;;;;;32.42;15.45;;;4.20;99.90;;;;;;4995187;28;20040;-88
2022/03/24 00:54:32;;;;;;;34.28;15.20;;;4.10;99.90;;;;;;4977386;28;20030;-88
2022/03/24 00:57:01;;;;;;;28.48;15.18;;;4.10;99.90;;;;;;4977777;28;20035;-88
2022/03/24 00:59:27;;;;;;;29.25;15.32;;;4.10;99.90;;;;;;4961624;28;20442;-88
2022/03/24 01:01:55;;;;;;;29.13;14.63;;;4.00;99.90;;;;;;4961804;28;20394;-88
2022/03/24 01:04:21;;;;;;;35.05;15.48;;;4.10;99.90;;;;;;4961797;28;20029;-88
2022/03/24 01:06:47;;;;;;;27.60;13.88;;;4.00;99.90;;;;;;4961574;28;20038;-88
2022/03/24 01:09:12;;;;;;;30.77;16.02;;;4.00;99.90;;;;;;4961410;28;20026;-87
2022/03/24 01:11:38;;;;;;;31.58;15.70;;;3.80;99.90;;;;;;4977546;28;20026;-88
2022/03/24 01:14:05;;;;;;;37.88;14.52;;;3.80;99.90;;;;;;4961612;28;20069;-88
2022/03/24 01:16:31;;;;;;;29.23;15.05;;;3.70;99.90;;;;;;4993793;28;20028;-88
2022/03/24 01:18:57;;;;;;;33.63;14.85;;;3.60;99.90;;;;;;4960948;28;20149;-88
2022/03/24 01:21:23;;;;;;;30.17;16.35;;;3.70;99.90;;;;;;4977453;28;20497;-87
2022/03/24 01:23:49;;;;;;;31.52;14.80;;;3.60;99.90;;;;;;4994526;28;20034;-88
2022/03/24 01:26:15;;;;;;;28.27;14.88;;;3.60;99.90;;;;;;4977321;28;20034;-88
2022/03/24 01:28:41;;;;;;;33.45;14.80;;;3.60;99.90;;;;;;4960804;28;20035;-87
2022/03/24 01:31:08;;;;;;;32.70;15.55;;;3.60;99.90;;;;;;4960365;28;20389;-88
2022/03/24 01:33:38;;;;;;;29.73;13.77;;;3.70;99.90;;;;;;4977207;28;20031;-88
2022/03/24 01:36:08;;;;;;;31.33;14.23;;;3.80;99.90;;;;;;4993452;28;20128;-88
2022/03/24 01:38:35;;;;;;;30.15;14.15;;;4.00;99.90;;;;;;4960995;28;20058;-88
2022/03/24 01:41:01;;;;;;;29.95;14.90;;;4.00;99.90;;;;;;4961675;28;20076;-88
2022/03/24 01:43:26;;;;;;;32.45;14.55;;;4.00;99.90;;;;;;4977299;28;20700;-88
2022/03/24 01:45:53;;;;;;;32.30;15.30;;;4.00;99.90;;;;;;4993304;28;20034;-87
2022/03/24 01:48:19;;;;;;;34.95;14.95;;;4.00;99.90;;;;;;4960757;28;20133;-88
2022/03/24 01:50:45;;;;;;;29.20;14.55;;;3.90;99.90;;;;;;4993464;28;20030;-88
2022/03/24 01:53:12;;;;;;;32.10;13.77;;;3.80;99.90;;;;;;4976951;28;20026;-88
2022/03/24 01:55:39;;;;;;;24.00;13.15;;;3.70;99.90;;;;;;4961049;28;20049;-88
2022/03/24 01:58:05;;;;;;;28.55;13.27;;;3.60;99.90;;;;;;4960621;28;20405;-88
2022/03/24 02:00:32;;;;;;;27.52;13.82;;;3.50;99.90;;;;;;4960678;28;20536;-88
2022/03/24 02:03:03;;;;;;;27.40;14.23;;;3.50;99.90;;;;;;4961411;28;20034;-88
2022/03/24 02:05:31;;;;;;;26.73;13.73;;;3.80;99.90;;;;;;4961052;28;20033;-88
2022/03/24 02:08:00;;;;;;;23.50;13.18;;;3.80;99.90;;;;;;4960335;28;20058;-88
2022/03/24 02:10:27;;;;;;;29.17;13.25;;;3.80;99.90;;;;;;4960961;28;20033;-88
2022/03/24 02:12:54;;;;;;;25.65;13.75;;;3.80;99.90;;;;;;4960627;28;20041;-88
2022/03/24 02:15:20;;;;;;;29.48;15.13;;;3.90;99.90;;;;;;4959874;28;20045;-89
2022/03/24 02:17:48;;;;;;;28.90;14.48;;;3.90;99.90;;;;;;4992598;28;20026;-88
2022/03/24 02:20:14;;;;;;;32.17;15.80;;;3.70;99.90;;;;;;4960559;28;20478;-87
2022/03/24 02:22:40;;;;;;;29.95;15.50;;;3.50;99.90;;;;;;4960461;28;20434;-87
2022/03/24 02:25:09;;;;;;;29.83;15.48;;;3.30;99.90;;;;;;4960914;28;20102;-88
2022/03/24 02:27:36;;;;;;;33.28;16.30;;;3.10;99.90;;;;;;4992493;28;20485;-88
2022/03/24 02:30:03;;;;;;;33.95;15.50;;;3.00;99.90;;;;;;4959902;28;20030;-88
2022/03/24 02:32:30;;;;;;;33.97;15.73;;;3.00;99.90;;;;;;4992245;28;20037;-88
2022/03/24 02:34:56;;;;;;;30.60;14.18;;;2.90;99.90;;;;;;4960420;28;20393;-87
2022/03/24 02:37:25;;;;;;;28.35;14.68;;;2.90;99.90;;;;;;4960439;28;20034;-87
2022/03/24 02:39:56;;;;;;;32.70;14.52;;;3.00;99.90;;;;;;4992869;28;20034;-88
2022/03/24 02:42:29;;;;;;;32.17;14.70;;;2.90;99.90;;;;;;4960805;28;20482;-88
2022/03/24 02:44:57;;;;;;;28.13;14.80;;;2.80;99.90;;;;;;4996808;28;20050;-88
2022/03/24 02:47:24;;;;;;;29.13;15.18;;;2.80;99.90;;;;;;4996807;28;20026;-88
2022/03/24 02:49:51;;;;;;;29.67;14.38;;;2.70;99.90;;;;;;4963971;28;20037;-88
2022/03/24 02:52:17;;;;;;;30.13;15.65;;;2.60;99.90;;;;;;4964075;28;20440;-88
2022/03/24 02:54:43;;;;;;;29.75;15.27;;;2.50;99.90;;;;;;4963725;28;20038;-88
2022/03/24 02:57:10;;;;;;;31.17;14.85;;;2.50;99.90;;;;;;4964012;28;20034;-87
2022/03/24 02:59:45;;;;;;;28.08;15.10;;;2.60;99.90;;;;;;4964202;28;20128;-88
2022/03/24 03:02:13;;;;;;;29.15;14.13;;;2.60;99.90;;;;;;4996332;28;20394;-87
2022/03/24 03:04:43;;;;;;;29.42;14.25;;;2.50;99.90;;;;;;4964186;28;20057;-88
2022/03/24 03:07:09;;;;;;;28.88;15.13;;;2.30;99.90;;;;;;4964318;28;20034;-88
2022/03/24 03:09:37;;;;;;;32.95;13.75;;;2.30;99.90;;;;;;4963844;28;20048;-87
2022/03/24 03:12:03;;;;;;;32.03;14.27;;;2.30;99.90;;;;;;4964255;28;20034;-88
2022/03/24 03:14:29;;;;;;;30.05;14.85;;;2.30;99.90;;;;;;4963837;28;20470;-88
2022/03/24 03:16:56;;;;;;;27.33;14.50;;;2.30;99.90;;;;;;4997257;28;20114;-86
2022/03/24 03:19:23;;;;;;;28.55;14.98;;;2.20;99.90;;;;;;4963849;28;20026;-88
2022/03/24 03:21:49;;;;;;;28.42;13.88;;;2.20;99.90;;;;;;4996323;28;20038;-88
2022/03/24 03:24:16;;;;;;;30.00;14.18;;;2.20;99.90;;;;;;4963953;28;20022;-88
2022/03/24 03:26:42;;;;;;;38.58;14.85;;;2.20;99.90;;;;;;4979882;28;20034;-88
2022/03/24 03:29:09;;;;;;;30.23;13.70;;;2.10;99.90;;;;;;4963500;28;20058;-88
2022/03/24 03:31:35;;;;;;;29.40;14.77;;;2.10;99.90;;;;;;4963909;28;20054;-88
2022/03/24 03:34:03;;;;;;;29.55;13.45;;;2.10;99.90;;;;;;4995542;28;20379;-87
2022/03/24 03:36:28;;;;;;;32.30;14.48;;;2.00;99.90;;;;;;4979322;28;20045;-88
2022/03/24 03:38:54;;;;;;;31.15;15.27;;;2.00;99.90;;;;;;4963141;28;20030;-88
2022/03/24 03:41:22;;;;;;;28.00;14.23;;;2.00;99.90;;;;;;4979207;28;20494;-88
2022/03/24 03:43:48;;;;;;;29.15;15.15;;;2.00;99.90;;;;;;4962893;28;20074;-88
2022/03/24 03:46:15;;;;;;;28.00;14.35;;;2.00;99.90;;;;;;4963371;28;20037;-88
2022/03/24 03:48:42;;;;;;;30.90;14.35;;;2.00;99.90;;;;;;4963089;28;20042;-88
2022/03/24 03:51:08;;;;;;;29.60;13.15;;;2.00;99.90;;;;;;4995302;28;20422;-88
2022/03/24 03:53:35;;;;;;;24.73;12.75;;;2.00;99.90;;;;;;4962612;28;20041;-88
2022/03/24 03:56:02;;;;;;;39.72;15.90;;;2.00;99.90;;;;;;4994154;28;20038;-88
2022/03/24 03:58:28;;;;;;;27.95;14.55;;;2.00;99.90;;;;;;4962445;28;20026;-88
2022/03/24 04:00:55;;;;;;;30.23;14.45;;;2.00;99.90;;;;;;4994872;28;20096;-88
2022/03/24 04:03:33;;;;;;;27.65;14.07;;;1.90;99.90;;;;;;4962576;28;20131;-87
2022/03/24 04:06:06;;;;;;;26.95;14.18;;;1.80;99.90;;;;;;4962421;28;20699;-87
2022/03/24 04:08:33;;;;;;;25.45;13.85;;;1.70;99.90;;;;;;4961797;28;20041;-88
2022/03/24 04:11:03;;;;;;;27.05;13.60;;;1.70;99.90;;;;;;4961962;28;20034;-88
2022/03/24 04:13:29;;;;;;;28.70;13.52;;;1.70;99.90;;;;;;4994289;28;20538;-88
2022/03/24 04:15:55;;;;;;;33.08;14.05;;;1.60;99.90;;;;;;4962267;28;20125;-87
2022/03/24 04:18:24;;;;;;;32.42;15.60;;;1.60;99.90;;;;;;4962150;28;20141;-87
2022/03/24 04:20:50;;;;;;;29.48;14.63;;;1.60;99.90;;;;;;4980113;28;20117;-87
2022/03/24 04:23:16;;;;;;;31.00;15.85;;;1.60;99.90;;;;;;4962818;28;20030;-88
2022/03/24 04:25:42;;;;;;;32.67;15.00;;;1.50;99.90;;;;;;4977590;28;20041;-88
2022/03/24 04:28:08;;;;;;;28.23;13.77;;;1.60;99.90;;;;;;4977831;28;20062;-88
2022/03/24 04:30:35;;;;;;;24.85;12.90;;;1.70;99.90;;;;;;4961898;28;20031;-87
2022/03/24 04:33:01;;;;;;;32.88;13.38;;;1.80;99.90;;;;;;4978281;28;20477;-88
2022/03/24 04:35:27;;;;;;;26.55;13.30;;;1.80;99.90;;;;;;4962135;28;20034;-87
2022/03/24 04:37:53;;;;;;;28.67;13.98;;;1.80;99.90;;;;;;4961635;28;20089;-87
2022/03/24 04:40:20;;;;;;;25.08;13.98;;;1.70;99.90;;;;;;4962062;28;20030;-87
2022/03/24 04:42:52;;;;;;;29.10;13.48;;;1.80;99.90;;;;;;4962143;28;20039;-88
2022/03/24 04:45:19;;;;;;;26.95;13.75;;;1.80;99.90;;;;;;4994463;28;20493;-88
2022/03/24 04:47:46;;;;;;;29.80;13.95;;;1.80;99.90;;;;;;4993947;28;20045;-88
2022/03/24 04:50:12;;;;;;;34.00;13.70;;;1.80;99.90;;;;;;4962025;28;20057;-87
2022/03/24 04:52:38;;;;;;;32.13;15.50;;;1.90;99.90;;;;;;4977536;28;20030;-88
2022/03/24 04:55:07;;;;;;;27.65;13.95;;;1.90;99.90;;;;;;4993499;28;20042;-87
2022/03/24 04:57:33;;;;;;;32.63;15.15;;;2.00;99.90;;;;;;4961809;28;20069;-88
2022/03/24 04:59:58;;;;;;;35.05;15.07;;;2.00;99.90;;;;;;4977924;28;20982;-88
2022/03/24 05:02:25;;;;;;;35.63;15.82;;;2.00;99.90;;;;;;4961625;28;20038;-87
2022/03/24 05:04:52;;;;;;;34.17;15.98;;;2.00;99.90;;;;;;4978044;28;20121;-87
2022/03/24 05:07:18;;;;;;;29.98;14.80;;;1.90;99.90;;;;;;4977443;28;20158;-87
2022/03/24 05:09:45;;;;;;;31.15;15.18;;;1.80;99.90;;;;;;4977913;28;20040;-88
2022/03/24 05:12:11;;;;;;;28.88;14.20;;;1.70;99.90;;;;;;4961803;28;20441;-88
2022/03/24 05:14:37;;;;;;;44.13;15.93;;;1.60;99.90;;;;;;4961554;28;20034;-88
2022/03/24 05:17:03;;;;;;;63.33;17.55;;;1.70;99.90;;;;;;4961433;28;20033;-88
2022/03/24 05:19:31;;;;;;;53.80;16.98;;;1.80;99.90;;;;;;4961257;28;20077;-88
2022/03/24 05:21:57;;;;;;;36.95;15.27;;;2.00;99.90;;;;;;4961240;28;20112;-85
2022/03/24 05:24:26;;;;;;;32.72;15.75;;;1.90;99.90;;;;;;4976449;28;20533;-84
2022/03/24 05:26:52;;;;;;;28.85;15.43;;;1.90;99.90;;;;;;4959968;28;20689;-84
2022/03/24 05:29:17;;;;;;;30.70;15.35;;;1.90;99.90;;;;;;4992751;28;20023;-84
2022/03/24 05:31:43;;;;;;;31.65;15.00;;;1.90;99.90;;;;;;4976078;28;20661;-85
2022/03/24 05:34:09;;;;;;;37.60;15.75;;;2.00;99.90;;;;;;4991685;28;20046;-84
2022/03/24 05:36:35;;;;;;;32.10;15.18;;;1.90;99.90;;;;;;4992613;28;20038;-84
2022/03/24 05:39:01;;;;;;;33.38;15.45;;;1.90;99.90;;;;;;4959746;28;20030;-84
2022/03/24 05:41:26;;;;;;;34.58;15.60;;;1.90;99.90;;;;;;4992503;28;20038;-84
2022/03/24 05:44:06;;;;;;;35.33;15.88;;;1.90;99.90;;;;;;4992052;28;20500;-83
2022/03/24 05:46:44;;;;;;;32.75;15.18;;;2.00;99.90;;;;;;4960200;28;20058;-84
2022/03/24 05:49:14;;;;;;;34.70;15.68;;;2.10;99.90;;;;;;4976237;28;20034;-84
2022/03/24 05:51:47;;;;;;;36.28;17.08;;;2.00;99.90;;;;;;4977411;28;20042;-84
2022/03/24 05:54:14;;;;;;;33.05;15.88;;;2.00;99.90;;;;;;4960382;28;20027;-84
2022/03/24 05:56:41;;;;;;;37.00;16.88;;;2.10;99.90;;;;;;4992687;28;20102;-84
2022/03/24 05:59:08;;;;;;;31.23;16.67;;;2.30;99.90;;;;;;4993472;28;20080;-84
2022/03/24 06:01:35;;;;;;;37.58;16.60;;;2.40;99.90;;;;;;4959805;28;20034;-84
2022/03/24 06:04:01;;;;;;;36.60;17.05;;;2.40;99.90;;;;;;4959587;28;20030;-84
2022/03/24 06:06:27;;;;;;;57.55;23.48;;;2.40;99.90;;;;;;4959373;28;20830;-84
2022/03/24 06:08:57;;;;;;;50.03;22.23;;;2.50;99.90;;;;;;4991140;28;20485;-84
2022/03/24 06:11:24;;;;;;;49.20;22.27;;;2.60;99.90;;;;;;4975760;28;20545;-84
2022/03/24 06:13:50;;;;;;;43.00;19.45;;;2.70;99.90;;;;;;4959333;28;20035;-85
2022/03/24 06:16:15;;;;;;;40.50;17.92;;;2.90;99.90;;;;;;4959620;28;20038;-84
2022/03/24 06:18:42;;;;;;;40.95;19.38;;;3.10;99.90;;;;;;4992551;28;20035;-84
2022/03/24 06:21:08;;;;;;;43.00;19.80;;;3.20;99.90;;;;;;4959733;28;20797;-84
2022/03/24 06:23:34;;;;;;;44.75;21.20;;;3.40;99.90;;;;;;4959561;28;20129;-84
2022/03/24 06:26:00;;;;;;;57.63;22.95;;;3.60;99.90;;;;;;4991574;28;20137;-84
2022/03/24 06:28:26;;;;;;;49.45;21.35;;;3.80;99.90;;;;;;4975173;28;20537;-84
2022/03/24 06:30:52;;;;;;;45.40;20.02;;;4.10;99.90;;;;;;4959271;28;20157;-85
2022/03/24 06:33:18;;;;;;;39.42;19.63;;;4.30;99.90;;;;;;4975686;28;20525;-85
2022/03/24 06:35:44;;;;;;;41.28;19.52;;;4.60;99.90;;;;;;4975781;28;20449;-85
2022/03/24 06:38:11;;;;;;;37.25;18.83;;;4.80;99.90;;;;;;4959464;28;20034;-85
2022/03/24 06:40:40;;;;;;;38.00;19.63;;;5.10;99.90;;;;;;4976047;28;20509;-84
2022/03/24 06:43:07;;;;;;;41.78;19.63;;;5.30;99.90;;;;;;4975922;28;20030;-84
2022/03/24 06:45:34;;;;;;;36.38;17.98;;;5.40;99.90;;;;;;4959606;28;20125;-85
2022/03/24 06:48:00;;;;;;;33.08;17.45;;;5.60;99.90;;;;;;4975337;28;20030;-85
2022/03/24 06:50:26;;;;;;;42.38;19.27;;;5.80;99.90;;;;;;4959227;28;20096;-84
2022/03/24 06:52:52;;;;;;;38.95;18.30;;;6.00;99.90;;;;;;4974612;28;20042;-85
2022/03/24 06:55:18;;;;;;;39.88;20.17;;;6.30;99.90;;;;;;4991135;28;20038;-85
2022/03/24 06:57:43;;;;;;;44.35;21.13;;;6.40;99.90;;;;;;4991418;28;20030;-84
2022/03/24 07:00:14;;;;;;;43.25;21.42;;;6.40;99.90;;;;;;4959457;28;20437;-84
2022/03/24 07:02:40;;;;;;;38.40;20.15;;;6.50;99.90;;;;;;4959313;28;20081;-85
2022/03/24 07:05:11;;;;;;;36.60;19.65;;;6.70;99.90;;;;;;4959343;28;20058;-85
2022/03/24 07:07:37;;;;;;;33.55;18.48;;;6.80;99.90;;;;;;4959262;28;20027;-85
2022/03/24 07:10:04;;;;;;;39.53;21.05;;;7.00;99.90;;;;;;4991504;28;20038;-84
2022/03/24 07:12:30;;;;;;;40.13;21.05;;;7.10;99.90;;;;;;4959242;28;20053;-85
2022/03/24 07:14:55;;;;;;;45.22;22.75;;;7.30;99.90;;;;;;4991711;28;20038;-85
2022/03/24 07:17:21;;;;;;;39.95;20.30;;;7.50;99.90;;;;;;4991390;28;20045;-84
2022/03/24 07:19:47;;;;;;;42.80;21.45;;;7.70;99.90;;;;;;4959549;28;20034;-85
2022/03/24 07:22:13;;;;;;;35.67;21.05;;;7.90;99.70;;;;;;4975885;28;20037;-85
2022/03/24 07:24:40;;;;;;;44.45;20.75;;;8.00;99.20;;;;;;4959468;28;20073;-85
2022/03/24 07:27:06;;;;;;;37.83;20.63;;;8.20;98.60;;;;;;4975916;28;20133;-85
2022/03/24 07:29:32;;;;;;;39.45;20.25;;;8.40;97.90;;;;;;4960611;28;20030;-85
2022/03/24 07:32:01;;;;;;;35.35;19.92;;;8.70;98.30;;;;;;4962263;28;20382;-85
2022/03/24 07:34:28;;;;;;;34.15;18.98;;;8.80;96.40;;;;;;4995099;28;20827;-85
2022/03/24 07:37:18;;;;;;;35.10;19.30;;;9.10;97.20;;;;;;4978840;28;20749;-85
2022/03/24 07:39:44;;;;;;;41.00;20.67;;;9.30;94.40;;;;;;4961841;28;20046;-85
2022/03/24 07:42:10;;;;;;;42.80;19.75;;;9.60;94.30;;;;;;4978294;28;20027;-85
2022/03/24 07:44:36;;;;;;;36.90;18.85;;;9.70;92.60;;;;;;4962380;28;20508;-85
2022/03/24 07:47:02;;;;;;;36.50;20.00;;;9.90;89.50;;;;;;4994799;28;20039;-85
2022/03/24 07:49:28;;;;;;;32.05;17.73;;;10.20;94.70;;;;;;4995047;28;20026;-85
2022/03/24 07:51:54;;;;;;;37.90;18.42;;;10.50;94.70;;;;;;4978696;28;20069;-85
2022/03/24 07:54:40;;;;;;;35.42;18.25;;;10.70;96.20;;;;;;4995041;28;20478;-85
2022/03/24 07:57:06;;;;;;;31.10;17.67;;;10.90;95.90;;;;;;4961896;28;20081;-85
2022/03/24 07:59:33;;;;;;;31.23;18.30;;;11.10;95.10;;;;;;4994784;28;20038;-85
2022/03/24 08:01:58;;;;;;;28.50;17.10;;;11.30;94.20;;;;;;4962426;28;20077;-85
2022/03/24 08:04:24;;;;;;;35.42;18.23;;;11.40;95.00;;;;;;4962116;28;20022;-85
2022/03/24 08:06:50;;;;;;;28.92;16.65;;;11.60;93.70;;;;;;4961576;28;20030;-85
2022/03/24 08:09:16;;;;;;;31.98;15.85;;;11.70;94.40;;;;;;4995309;28;20035;-85
2022/03/24 08:11:42;;;;;;;31.08;16.55;;;11.80;93.60;;;;;;4962268;28;20101;-85
2022/03/24 08:14:07;;;;;;;33.05;16.30;;;11.90;92.80;;;;;;4994111;28;20060;-85
2022/03/24 08:16:33;;;;;;;27.30;16.42;;;11.90;92.50;;;;;;4994593;28;20462;-85
2022/03/24 08:18:59;;;;;;;34.58;16.67;;;11.90;91.90;;;;;;4961731;28;20428;-85
2022/03/24 08:21:25;;;;;;;29.88;16.55;;;12.00;92.30;;;;;;4993996;28;20038;-85
2022/03/24 08:23:50;;;;;;;26.13;16.80;;;12.10;92.60;;;;;;4977643;28;20096;-85
2022/03/24 08:26:16;;;;;;;28.13;15.43;;;12.10;90.40;;;;;;4994024;28;20041;-85
2022/03/24 08:28:42;;;;;;;32.22;16.90;;;12.10;90.70;;;;;;4961409;28;20031;-85
2022/03/24 08:31:08;;;;;;;29.38;16.73;;;12.10;87.90;;;;;;4961832;28;20054;-85
2022/03/24 08:33:33;;;;;;;29.42;16.25;;;12.10;89.30;;;;;;4995584;28;20085;-85
2022/03/24 08:35:59;;;;;;;28.73;16.95;;;12.10;90.40;;;;;;4961757;28;20034;-85
2022/03/24 08:38:25;;;;;;;35.30;17.27;;;12.10;90.20;;;;;;4993524;28;20070;-85
2022/03/24 08:40:51;;;;;;;36.33;17.92;;;12.10;90.60;;;;;;4961381;28;20044;-84
2022/03/24 08:43:17;;;;;;;30.15;17.88;;;12.10;90.80;;;;;;4993718;28;20035;-85
2022/03/24 08:45:43;;;;;;;32.90;17.65;;;12.00;90.10;;;;;;4961437;28;20040;-84
2022/03/24 08:48:09;;;;;;;30.67;16.80;;;12.20;90.60;;;;;;4960991;28;20035;-85
2022/03/24 08:50:36;;;;;;;34.05;17.77;;;13.50;87.70;;;;;;4993724;28;20066;-85
2022/03/24 08:53:05;;;;;;;28.52;17.65;;;15.50;80.80;;;;;;4961036;28;20371;-85
2022/03/24 08:55:37;;;;;;;24.35;16.55;;;17.30;72.50;;;;;;4977199;28;20101;-85
2022/03/24 08:58:03;;;;;;;29.48;17.95;;;18.90;65.80;;;;;;4992768;28;20034;-85
2022/03/24 09:00:29;;;;;;;31.05;18.55;;;19.90;56.40;;;;;;4960950;28;20089;-85
2022/03/24 09:02:55;;;;;;;27.00;17.75;;;20.50;49.50;;;;;;4961123;28;20544;-86
2022/03/24 09:05:21;;;;;;;32.45;18.58;;;20.90;48.00;;;;;;4977084;28;20030;-83
2022/03/24 09:07:47;;;;;;;25.52;18.05;;;21.40;47.30;;;;;;4992835;28;20038;-83
2022/03/24 09:10:15;;;;;;;24.05;17.05;;;22.20;44.00;;;;;;4993055;28;20038;-83
2022/03/24 09:12:44;;;;;;;32.80;18.75;;;22.70;42.40;;;;;;4960538;28;20038;-83
2022/03/24 09:15:12;;;;;;;27.92;17.42;;;22.80;41.80;;;;;;4992437;28;20153;-83
2022/03/24 09:17:39;;;;;;;24.10;16.95;;;22.70;43.00;;;;;;4960050;28;20255;-84
2022/03/24 09:20:09;;;;;;;28.85;19.30;;;22.20;42.20;;;;;;4992545;28;20049;-84
2022/03/24 09:22:39;;;;;;;27.92;17.42;;;21.10;43.80;;;;;;4976438;28;20405;-84
2022/03/24 09:25:06;;;;;;;28.25;18.08;;;20.30;44.60;;;;;;4960732;28;20128;-84
2022/03/24 09:27:32;;;;;;;26.23;17.48;;;19.70;45.70;;;;;;4992558;28;20038;-84
2022/03/24 09:29:57;;;;;;;26.15;18.75;;;19.30;46.20;;;;;;4976711;28;20030;-84
2022/03/24 09:32:24;;;;;;;28.98;18.83;;;18.70;46.60;;;;;;4976700;28;20142;-84
2022/03/24 09:34:50;;;;;;;29.98;19.10;;;18.10;49.10;;;;;;4976350;28;20030;-83
2022/03/24 09:37:18;;;;;;;31.67;19.65;;;17.70;48.90;;;;;;4975769;28;20441;-83
2022/03/24 09:39:45;;;;;;;32.28;20.17;;;17.50;47.90;;;;;;4960198;28;20520;-83
2022/03/24 09:42:12;;;;;;;34.30;18.90;;;17.40;48.10;;;;;;4976830;28;20030;-83
2022/03/24 09:44:40;;;;;;;28.83;19.25;;;17.70;50.00;;;;;;4960759;28;20125;-83
2022/03/24 09:47:08;;;;;;;29.48;19.42;;;18.00;48.10;;;;;;4960050;28;20118;-83
2022/03/24 09:49:35;;;;;;;29.88;18.40;;;18.20;46.80;;;;;;4976748;28;20489;-83
2022/03/24 09:52:01;;;;;;;29.23;18.27;;;18.50;46.20;;;;;;4959930;28;20034;-83
2022/03/24 09:54:26;;;;;;;30.48;18.40;;;18.80;46.50;;;;;;4993697;28;20125;-83
2022/03/24 09:56:52;;;;;;;29.40;17.90;;;19.30;45.00;;;;;;4960047;28;20033;-83
2022/03/24 09:59:18;;;;;;;23.08;16.75;;;19.50;43.90;;;;;;4992771;28;20108;-84
2022/03/24 10:01:43;;;;;;;26.67;17.20;;;19.80;44.40;;;;;;4994085;28;20482;-84
2022/03/24 10:04:14;;;;;;;25.38;17.63;;;20.30;42.70;;;;;;4992741;28;20048;-83
2022/03/24 10:07:00;;;;;;;27.17;16.37;;;20.40;42.60;;;;;;4992608;28;20080;-84
2022/03/24 10:09:44;;;;;;;23.17;16.45;;;20.50;42.60;;;;;;4960020;28;20465;-84
2022/03/24 10:12:36;;;;;;;24.50;17.13;;;21.40;40.60;;;;;;4960204;28;20493;-84
2022/03/24 10:15:06;;;;;;;21.58;14.85;;;22.00;39.40;;;;;;4976868;28;20042;-84
2022/03/24 10:17:34;;;;;;;22.60;15.10;;;22.40;40.20;;;;;;4959392;28;20109;-84
2022/03/24 10:20:15;;;;;;;20.05;15.18;;;22.60;40.40;;;;;;4959757;28;20437;-84
2022/03/24 10:22:53;;;;;;;25.23;15.68;;;22.60;42.30;;;;;;4959974;28;20034;-83
2022/03/24 10:25:31;;;;;;;29.70;16.92;;;23.50;38.10;;;;;;4959903;28;20035;-84
2022/03/24 10:28:08;;;;;;;23.55;16.48;;;22.80;43.60;;;;;;4959442;28;20714;-84
2022/03/24 10:30:53;;;;;;;36.63;17.23;;;22.60;46.60;;;;;;4959810;28;20472;-84
2022/03/24 10:33:47;;;;;;;26.55;18.10;;;22.40;48.10;;;;;;4976217;28;20113;-83
2022/03/24 10:36:17;;;;;;;26.55;16.38;;;21.90;49.70;;;;;;4974039;28;20551;-83
2022/03/24 10:38:45;;;;;;;25.25;17.20;;;21.20;51.10;;;;;;4959635;28;20061;-83
2022/03/24 10:41:15;;;;;;;29.30;18.80;;;21.50;50.30;;;;;;4992448;28;20034;-84
2022/03/24 10:43:41;;;;;;;29.10;17.33;;;20.70;49.30;;;;;;4959359;28;20042;-84
2022/03/24 10:46:22;;;;;;;26.13;17.13;;;21.10;50.30;;;;;;4959180;28;20058;-84
2022/03/24 10:48:49;;;;;;;29.15;18.63;;;21.20;49.10;;;;;;4959528;28;20503;-84
2022/03/24 10:51:32;;;;;;;24.33;17.55;;;20.90;50.10;;;;;;4959766;28;20045;-84
2022/03/24 10:54:12;;;;;;;26.48;17.67;;;20.40;47.50;;;;;;4959061;28;20026;-84
2022/03/24 10:56:45;;;;;;;32.65;18.10;;;20.40;51.10;;;;;;4959948;28;20393;-84
2022/03/24 10:59:11;;;;;;;26.42;18.10;;;20.20;50.50;;;;;;4959738;28;20030;-84
2022/03/24 11:01:38;;;;;;;29.52;18.60;;;20.30;50.40;;;;;;4959620;28;20041;-84
2022/03/24 11:04:03;;;;;;;25.48;17.75;;;20.50;49.20;;;;;;4993802;28;20036;-84
2022/03/24 11:06:30;;;;;;;25.23;16.90;;;20.60;50.00;;;;;;4996060;28;20026;-83
2022/03/24 11:09:01;;;;;;;26.70;16.38;;;20.50;45.60;;;;;;4978828;28;20035;-84
2022/03/24 11:11:28;;;;;;;27.20;19.17;;;20.20;45.90;;;;;;4997315;28;20110;-84
2022/03/24 11:14:03;;;;;;;25.38;18.50;;;20.50;47.30;;;;;;4979259;28;20084;-84
2022/03/24 11:16:42;;;;;;;29.65;17.77;;;20.60;48.30;;;;;;4963351;28;20505;-84
2022/03/24 11:19:15;;;;;;;30.67;17.83;;;20.40;48.10;;;;;;4979273;28;20401;-84
2022/03/24 11:21:58;;;;;;;29.13;18.83;;;20.80;47.40;;;;;;4979264;28;20761;-83
2022/03/24 11:24:25;;;;;;;30.80;18.98;;;21.10;48.30;;;;;;4963090;28;20639;-84
2022/03/24 11:26:51;;;;;;;26.48;18.48;;;21.70;48.10;;;;;;4978746;28;20030;-84
2022/03/24 11:29:17;;;;;;;25.48;17.73;;;21.40;45.20;;;;;;4963312;28;20054;-84
2022/03/24 11:31:47;;;;;;;33.88;20.65;;;21.60;45.70;;;;;;4978634;28;20116;-84
2022/03/24 11:34:14;;;;;;;26.35;17.67;;;21.40;45.50;;;;;;4962762;28;20162;-84
2022/03/24 11:36:41;;;;;;;24.65;17.85;;;21.60;44.20;;;;;;4979074;28;20030;-83
2022/03/24 11:39:09;;;;;;;25.95;18.25;;;21.60;44.60;;;;;;4995535;28;20034;-84
2022/03/24 11:41:52;;;;;;;25.73;16.95;;;21.90;44.50;;;;;;4995196;28;20033;-84
2022/03/24 11:44:29;;;;;;;27.50;17.25;;;22.50;42.20;;;;;;4963200;28;20038;-84
2022/03/24 11:47:00;;;;;;;25.13;17.15;;;22.90;42.20;;;;;;4963304;28;20069;-84
2022/03/24 11:49:28;;;;;;;25.23;17.38;;;22.70;42.20;;;;;;4962733;28;20038;-83
2022/03/24 11:51:56;;;;;;;27.80;18.63;;;22.10;41.40;;;;;;4979117;28;20760;-84
2022/03/24 11:54:34;;;;;;;25.95;16.70;;;22.20;41.20;;;;;;4978849;28;20034;-84
2022/03/24 11:57:25;;;;;;;25.73;17.73;;;22.20;41.00;;;;;;4962673;28;20066;-84
2022/03/24 12:00:13;;;;;;;31.27;18.40;;;22.40;43.00;;;;;;4978947;28;20085;-84
2022/03/24 12:02:40;;;;;;;28.02;18.45;;;22.90;42.30;;;;;;4994389;28;20042;-84
2022/03/24 12:05:06;;;;;;;31.77;18.30;;;23.50;40.50;;;;;;4962686;28;20501;-84
2022/03/24 12:07:32;;;;;;;27.27;19.05;;;22.50;41.90;;;;;;4962245;28;20630;-84
2022/03/24 12:10:04;;;;;;;27.98;17.75;;;22.50;41.60;;;;;;4994548;28;20054;-84
2022/03/24 12:12:30;;;;;;;31.25;20.13;;;22.80;40.10;;;;;;4962016;28;20129;-84
2022/03/24 12:14:58;;;;;;;29.25;18.98;;;22.90;39.90;;;;;;4961836;28;20104;-84
2022/03/24 12:17:31;;;;;;;28.00;18.80;;;23.50;40.20;;;;;;4961835;28;20034;-83
2022/03/24 12:19:59;;;;;;;28.27;18.77;;;23.40;39.50;;;;;;4962632;28;20037;-84
2022/03/24 12:22:25;;;;;;;26.10;18.13;;;23.50;39.30;;;;;;4994164;28;20489;-84
2022/03/24 12:24:52;;;;;;;33.85;20.48;;;23.10;39.40;;;;;;4962145;28;20041;-84
2022/03/24 12:27:18;;;;;;;30.92;18.35;;;22.40;40.80;;;;;;4993917;28;20049;-84
2022/03/24 12:30:14;;;;;;;26.35;18.63;;;22.30;41.10;;;;;;4978086;28;20026;-84
2022/03/24 12:32:42;;;;;;;28.92;18.73;;;22.10;40.40;;;;;;4954870;28;20034;-84
2022/03/24 12:35:28;;;;;;;31.30;17.58;;;21.60;40.50;;;;;;4994690;28;20038;-84
2022/03/24 12:37:55;;;;;;;31.38;20.63;;;21.30;41.90;;;;;;4960763;28;20030;-84